DuBois Regional Airport Dubois US
ICAO: KDUJ
IATA: DUJ
Category: Medium
Scheduled Services: Yes

Elevation: 1817 ft
TransAlt. 18000 ft.

Airport Communications:
ASOS:119.025
CLEVELAND CNTR:126.72
CTAF:123
ALTOONA RDO:122.2
UNICOM:123

KDUJ Zoom In..

Runways:

(A) RW 07 length 5503 ft width 100 ft
---- / hdg 72

(B) RW 25 length 5503 ft width 100 ft
ILS 109.90 / hdg 252

Location; KDUJ
Day. 10 / Time. 08.00 Zulu
* Altimeter: 29.49
* Temperature: -01° c. -30.2°f.
* Wind from: 270° Speed 17 kn with Gusts up to 21 kn.
Dewpoint: -03° c.
Visibility: 8 Statute Miles.
Clouds: Few 600 ft.
Clouds: Broken 2200 ft.
Clouds: Overcast 4900 ft.

KDUJ 100800Z AUTO 27017G21KT 8SM FEW006 BKN022 OVC049 M01/M03 A2949 RMK AO2 SNE0757 P0000 T10111028


Wind From 270°
Speed 17 kn.

 
 
jpsmedia worldairports.se 2020   terms of use